createdAt,value
2022-12-29T00:00:27.400Z,7.60
2022-12-29T00:02:55.397Z,7.70
2022-12-29T00:05:23.509Z,7.70
2022-12-29T00:07:51.367Z,7.70
2022-12-29T00:10:19.343Z,7.80
2022-12-29T00:13:05.315Z,7.80
2022-12-29T00:15:40.532Z,7.80
2022-12-29T00:18:09.211Z,7.70
2022-12-29T00:20:55.861Z,7.80
2022-12-29T00:23:41.733Z,7.80
2022-12-29T00:26:33.292Z,7.80
2022-12-29T00:29:33.288Z,7.80
2022-12-29T00:32:21.060Z,7.80
2022-12-29T00:35:06.648Z,7.80
2022-12-29T00:37:48.580Z,7.70
2022-12-29T00:40:34.495Z,7.80
2022-12-29T00:43:19.818Z,7.70
2022-12-29T00:45:47.706Z,7.70
2022-12-29T00:48:37.013Z,7.70
2022-12-29T00:51:04.514Z,7.70
2022-12-29T00:53:32.573Z,7.70
2022-12-29T00:56:00.794Z,7.70
2022-12-29T00:58:29.491Z,7.70
2022-12-29T01:01:04.239Z,7.70
2022-12-29T01:03:34.339Z,7.60
2022-12-29T01:06:09.219Z,7.60
2022-12-29T01:08:39.775Z,7.50
2022-12-29T01:11:08.791Z,7.50
2022-12-29T01:13:38.127Z,7.40
2022-12-29T01:16:07.536Z,7.40
2022-12-29T01:19:01.418Z,7.40
2022-12-29T01:21:44.930Z,7.40
2022-12-29T01:24:18.709Z,7.40
2022-12-29T01:27:14.823Z,7.40
2022-12-29T01:29:43.757Z,7.40
2022-12-29T01:32:11.899Z,7.30
2022-12-29T01:34:43.546Z,7.30
2022-12-29T01:37:22.108Z,7.30
2022-12-29T01:39:57.352Z,7.40
2022-12-29T01:42:28.193Z,7.40
2022-12-29T01:44:58.678Z,7.40
2022-12-29T01:47:39.695Z,7.40
2022-12-29T01:50:12.500Z,7.40
2022-12-29T01:52:46.263Z,7.40
2022-12-29T01:55:14.895Z,7.40
2022-12-29T01:57:47.625Z,7.40
2022-12-29T02:00:16.769Z,7.40
2022-12-29T02:02:52.627Z,7.40
2022-12-29T02:05:29.950Z,7.50
2022-12-29T02:07:58.801Z,7.50
2022-12-29T02:10:29.687Z,7.50
2022-12-29T02:12:58.465Z,7.50
2022-12-29T02:15:49.529Z,7.50
2022-12-29T02:18:30.308Z,7.50
2022-12-29T02:21:25.722Z,7.60
2022-12-29T02:24:28.633Z,7.60
2022-12-29T02:27:23.289Z,7.70
2022-12-29T02:30:05.993Z,7.70
2022-12-29T02:32:45.191Z,7.70
2022-12-29T02:35:22.187Z,7.60
2022-12-29T02:38:00.398Z,7.70
2022-12-29T02:40:37.845Z,7.70
2022-12-29T02:43:13.141Z,7.70
2022-12-29T02:45:49.596Z,7.70
2022-12-29T02:48:24.556Z,7.70
2022-12-29T02:50:59.547Z,7.70
2022-12-29T02:53:47.090Z,7.60
2022-12-29T02:56:15.051Z,7.60
2022-12-29T02:58:43.342Z,7.60
2022-12-29T03:01:27.596Z,7.60
2022-12-29T03:04:21.517Z,7.70
2022-12-29T03:06:58.121Z,7.70
2022-12-29T03:09:37.248Z,7.70
2022-12-29T03:12:16.238Z,7.70
2022-12-29T03:15:12.330Z,7.80
2022-12-29T03:17:49.168Z,7.80
2022-12-29T03:20:21.021Z,7.80
2022-12-29T03:22:53.842Z,7.80
2022-12-29T03:25:28.148Z,7.70
2022-12-29T03:27:59.725Z,7.80
2022-12-29T03:30:31.011Z,7.80
2022-12-29T03:33:03.381Z,7.80
2022-12-29T03:35:38.109Z,7.70
2022-12-29T03:38:16.985Z,7.80
2022-12-29T03:40:51.007Z,7.80
2022-12-29T03:43:19.768Z,7.80
2022-12-29T03:45:48.643Z,7.80
2022-12-29T03:48:16.605Z,7.80
2022-12-29T03:50:47.036Z,7.80
2022-12-29T03:53:24.883Z,7.70
2022-12-29T03:55:53.219Z,7.70
2022-12-29T03:58:21.583Z,7.70
2022-12-29T04:01:10.023Z,7.70
2022-12-29T04:03:40.327Z,7.70
2022-12-29T04:06:10.356Z,7.70
2022-12-29T04:08:47.938Z,7.70
2022-12-29T04:11:15.829Z,7.60
2022-12-29T04:13:44.084Z,7.60
2022-12-29T04:16:15.951Z,7.60
2022-12-29T04:18:43.916Z,7.70
2022-12-29T04:21:13.390Z,7.70
2022-12-29T04:23:43.554Z,7.70
2022-12-29T04:26:12.107Z,7.70
2022-12-29T04:28:54.865Z,7.70
2022-12-29T04:31:34.895Z,7.70
2022-12-29T04:34:03.217Z,7.70
2022-12-29T04:36:32.702Z,7.70
2022-12-29T04:39:01.185Z,7.70
2022-12-29T04:41:29.305Z,7.70
2022-12-29T04:43:57.263Z,7.80
2022-12-29T04:46:31.189Z,7.80
2022-12-29T04:49:08.785Z,7.80
2022-12-29T04:51:50.605Z,7.80
2022-12-29T04:54:19.502Z,7.80
2022-12-29T04:56:54.685Z,7.90
2022-12-29T04:59:22.771Z,7.80
2022-12-29T05:01:53.676Z,7.80
2022-12-29T05:04:21.733Z,7.90
2022-12-29T05:06:51.054Z,7.80
2022-12-29T05:09:19.686Z,7.80
2022-12-29T05:11:47.656Z,7.80
2022-12-29T05:14:15.927Z,7.80
2022-12-29T05:16:44.929Z,7.70
2022-12-29T05:19:12.869Z,7.90
2022-12-29T05:21:40.808Z,7.90
2022-12-29T05:24:11.697Z,7.80
2022-12-29T05:26:39.665Z,7.70
2022-12-29T05:29:32.531Z,7.70
2022-12-29T05:32:00.550Z,7.70
2022-12-29T05:34:29.354Z,7.70
2022-12-29T05:36:57.729Z,7.60
2022-12-29T05:39:27.282Z,7.60
2022-12-29T05:42:00.851Z,7.70
2022-12-29T05:44:51.034Z,7.70
2022-12-29T05:47:39.537Z,7.70
2022-12-29T05:50:13.639Z,7.70
2022-12-29T05:53:00.850Z,7.70
2022-12-29T05:55:30.254Z,7.70
2022-12-29T05:57:58.838Z,7.80
2022-12-29T06:00:26.871Z,7.80
2022-12-29T06:02:55.001Z,7.80
2022-12-29T06:05:23.119Z,7.70
2022-12-29T06:07:50.988Z,7.80
2022-12-29T06:10:19.603Z,7.80
2022-12-29T06:12:53.827Z,7.80
2022-12-29T06:15:21.761Z,7.80
2022-12-29T06:17:51.669Z,7.80
2022-12-29T06:20:19.639Z,7.90
2022-12-29T06:22:47.655Z,7.90
2022-12-29T06:25:15.623Z,7.90
2022-12-29T06:27:45.258Z,8.00
2022-12-29T06:30:15.938Z,8.00
2022-12-29T06:32:45.251Z,8.00
2022-12-29T06:35:14.149Z,8.10
2022-12-29T06:37:47.038Z,8.10
2022-12-29T06:40:15.235Z,8.00
2022-12-29T06:43:05.966Z,8.00
2022-12-29T06:45:48.853Z,8.00
2022-12-29T06:48:16.876Z,8.00
2022-12-29T06:50:45.129Z,8.00
2022-12-29T06:53:13.049Z,8.00
2022-12-29T06:55:41.024Z,8.00
2022-12-29T06:58:09.173Z,8.00
2022-12-29T07:00:37.219Z,7.90
2022-12-29T07:03:07.071Z,7.90
2022-12-29T07:05:35.068Z,7.80
2022-12-29T07:08:02.950Z,7.80
2022-12-29T07:10:30.858Z,7.80
2022-12-29T07:12:58.782Z,7.80
2022-12-29T07:15:26.763Z,7.70
2022-12-29T07:17:54.665Z,7.70
2022-12-29T07:20:26.976Z,7.70
2022-12-29T07:22:55.359Z,7.70
2022-12-29T07:25:23.610Z,7.70
2022-12-29T07:27:51.766Z,7.70
2022-12-29T07:30:19.908Z,7.70
2022-12-29T07:32:47.790Z,7.70
2022-12-29T07:35:15.787Z,7.70
2022-12-29T07:37:46.747Z,7.80
2022-12-29T07:40:15.076Z,7.80
2022-12-29T07:42:42.998Z,7.90
2022-12-29T07:45:11.930Z,7.90
2022-12-29T07:47:58.089Z,8.00
2022-12-29T07:50:25.990Z,8.00
2022-12-29T07:52:55.220Z,8.00
2022-12-29T07:55:23.458Z,8.00
2022-12-29T07:57:51.909Z,8.10
2022-12-29T08:00:20.101Z,8.10
2022-12-29T08:02:48.130Z,8.10
2022-12-29T08:05:16.396Z,8.10
2022-12-29T08:07:45.062Z,8.10
2022-12-29T08:10:15.438Z,8.10
2022-12-29T08:12:44.165Z,8.10
2022-12-29T08:15:13.630Z,8.10
2022-12-29T08:17:41.603Z,8.10
2022-12-29T08:20:10.695Z,8.10
2022-12-29T08:22:39.443Z,8.10
2022-12-29T08:25:07.779Z,8.20
2022-12-29T08:27:37.610Z,8.20
2022-12-29T08:30:06.359Z,8.20
2022-12-29T08:32:34.659Z,8.20
2022-12-29T08:35:02.630Z,8.20
2022-12-29T08:37:31.433Z,8.20
2022-12-29T08:40:00.937Z,8.30
2022-12-29T08:42:31.893Z,8.40
2022-12-29T08:45:01.343Z,8.40
2022-12-29T08:47:29.609Z,8.50
2022-12-29T08:49:57.489Z,8.60
2022-12-29T08:52:25.441Z,8.60
2022-12-29T08:54:53.304Z,8.80
2022-12-29T08:57:22.182Z,8.80
2022-12-29T09:00:09.042Z,8.90
2022-12-29T09:02:37.122Z,9.00
2022-12-29T09:05:06.156Z,9.10
2022-12-29T09:07:34.056Z,9.10
2022-12-29T09:10:02.026Z,9.20
2022-12-29T09:12:35.923Z,9.30
2022-12-29T09:15:05.833Z,9.30
2022-12-29T09:17:44.825Z,9.20
2022-12-29T09:20:13.354Z,9.30
2022-12-29T09:22:41.477Z,9.30
2022-12-29T09:25:10.394Z,9.30
2022-12-29T09:27:38.891Z,9.20
2022-12-29T09:30:09.380Z,9.20
2022-12-29T09:32:44.604Z,9.10
2022-12-29T09:35:13.164Z,9.10
2022-12-29T09:37:41.177Z,9.10
2022-12-29T09:40:19.462Z,9.00
2022-12-29T09:42:57.083Z,9.00
2022-12-29T09:45:32.552Z,9.00
2022-12-29T09:48:06.721Z,9.10
2022-12-29T09:50:39.889Z,9.20
2022-12-29T09:53:17.470Z,9.30
2022-12-29T09:55:49.243Z,9.50
2022-12-29T09:58:24.450Z,9.60
2022-12-29T10:00:58.631Z,9.80
2022-12-29T10:03:38.733Z,10.00
2022-12-29T10:06:10.414Z,10.30
2022-12-29T10:08:43.948Z,10.60
2022-12-29T10:11:24.714Z,11.00
2022-12-29T10:14:16.268Z,11.00
2022-12-29T10:16:51.417Z,11.00
2022-12-29T10:19:46.021Z,11.50
2022-12-29T10:22:27.625Z,12.10
2022-12-29T10:24:57.662Z,12.60
2022-12-29T10:27:26.225Z,13.00
2022-12-29T10:29:57.708Z,13.30
2022-12-29T10:32:31.414Z,13.40
2022-12-29T10:35:07.113Z,13.70
2022-12-29T10:37:42.515Z,14.20
2022-12-29T10:40:24.075Z,14.20
2022-12-29T10:42:55.376Z,14.00
2022-12-29T10:45:25.968Z,13.80
2022-12-29T10:47:59.499Z,13.70
2022-12-29T10:50:30.442Z,13.30
2022-12-29T10:53:02.174Z,12.90
2022-12-29T10:55:34.966Z,12.70
2022-12-29T10:58:06.698Z,12.50
2022-12-29T11:00:35.825Z,12.50
2022-12-29T11:03:23.551Z,12.50
2022-12-29T11:05:58.478Z,12.30
2022-12-29T11:08:29.856Z,11.90
2022-12-29T11:11:03.785Z,11.60
2022-12-29T11:13:38.834Z,11.50
2022-12-29T11:16:07.885Z,11.40
2022-12-29T11:18:38.966Z,11.50
2022-12-29T11:21:27.166Z,11.20
2022-12-29T11:23:59.341Z,11.10
2022-12-29T11:26:33.853Z,10.90
2022-12-29T11:29:16.697Z,10.80
2022-12-29T11:31:46.352Z,10.60
2022-12-29T11:34:20.538Z,10.50
2022-12-29T11:36:50.938Z,10.40
2022-12-29T11:39:31.425Z,10.20
2022-12-29T11:42:03.408Z,10.10
2022-12-29T11:44:39.125Z,10.10
2022-12-29T11:47:11.624Z,10.00
2022-12-29T11:49:40.665Z,9.90
2022-12-29T11:52:10.355Z,9.90
2022-12-29T11:54:40.509Z,9.90
2022-12-29T11:57:15.231Z,9.90
2022-12-29T11:59:45.397Z,9.90
2022-12-29T12:02:27.261Z,9.90
2022-12-29T12:05:02.028Z,9.90
2022-12-29T12:07:41.233Z,9.80
2022-12-29T12:10:26.755Z,9.80
2022-12-29T12:13:01.821Z,9.80
2022-12-29T12:15:43.438Z,9.80
2022-12-29T12:18:19.898Z,9.80
2022-12-29T12:20:51.970Z,9.90
2022-12-29T12:23:32.742Z,9.80
2022-12-29T12:26:06.377Z,9.80
2022-12-29T12:28:44.204Z,9.90
2022-12-29T12:31:23.600Z,9.90
2022-12-29T12:33:59.804Z,9.90
2022-12-29T12:36:48.705Z,10.00
2022-12-29T12:39:28.053Z,9.90
2022-12-29T12:42:09.578Z,10.00
2022-12-29T12:44:49.026Z,10.00
2022-12-29T12:47:42.519Z,10.10
2022-12-29T12:50:34.160Z,10.10
2022-12-29T12:53:32.178Z,10.10
2022-12-29T12:56:31.690Z,10.10
2022-12-29T12:59:09.858Z,10.10
2022-12-29T13:01:44.384Z,10.10
2022-12-29T13:04:35.360Z,10.10
2022-12-29T13:07:16.464Z,10.10
2022-12-29T13:09:57.021Z,10.20
2022-12-29T13:12:37.499Z,10.30
2022-12-29T13:15:15.056Z,10.30
2022-12-29T13:17:47.852Z,10.30
2022-12-29T13:20:27.205Z,10.40
2022-12-29T13:23:02.953Z,10.50
2022-12-29T13:25:39.553Z,10.50
2022-12-29T13:28:18.843Z,10.60
2022-12-29T13:30:55.649Z,10.60
2022-12-29T13:33:30.435Z,10.70
2022-12-29T13:36:04.694Z,10.80
2022-12-29T13:38:37.649Z,10.80
2022-12-29T13:41:10.161Z,10.80
2022-12-29T13:43:42.316Z,10.80
2022-12-29T13:46:14.672Z,10.80
2022-12-29T13:48:48.395Z,10.90
2022-12-29T13:51:20.198Z,10.90
2022-12-29T13:54:05.506Z,10.90
2022-12-29T13:56:37.504Z,10.90
2022-12-29T13:59:16.731Z,10.90
2022-12-29T14:01:52.265Z,10.90
2022-12-29T14:04:25.194Z,10.80
2022-12-29T14:07:04.721Z,10.90
2022-12-29T14:09:48.479Z,10.80
2022-12-29T14:12:38.798Z,10.80
2022-12-29T14:15:24.150Z,10.80
2022-12-29T14:18:05.674Z,10.80
2022-12-29T14:20:36.014Z,10.70
2022-12-29T14:23:19.030Z,10.70
2022-12-29T14:25:59.847Z,10.60
2022-12-29T14:28:29.267Z,10.50
2022-12-29T14:30:59.817Z,10.50
2022-12-29T14:33:30.750Z,10.50
2022-12-29T14:36:07.543Z,10.50
2022-12-29T14:38:46.160Z,10.40
2022-12-29T14:41:31.008Z,10.40
2022-12-29T14:44:12.141Z,10.30
2022-12-29T14:46:51.408Z,10.30
2022-12-29T14:49:22.496Z,10.30
2022-12-29T14:51:52.728Z,10.20
2022-12-29T14:54:44.389Z,10.10
2022-12-29T14:57:22.353Z,10.10
2022-12-29T14:59:54.697Z,10.10
2022-12-29T15:02:27.914Z,9.90
2022-12-29T15:05:01.210Z,9.90
2022-12-29T15:07:30.861Z,9.80
2022-12-29T15:10:03.279Z,9.80
2022-12-29T15:12:39.244Z,9.70
2022-12-29T15:15:20.977Z,9.70
2022-12-29T15:17:50.266Z,9.70
2022-12-29T15:20:25.807Z,9.70
2022-12-29T15:22:56.905Z,9.60
2022-12-29T15:25:26.125Z,9.60
2022-12-29T15:27:56.201Z,9.60
2022-12-29T15:30:24.898Z,9.50
2022-12-29T15:32:54.202Z,9.50
2022-12-29T15:35:35.337Z,9.50
2022-12-29T15:38:16.835Z,9.30
2022-12-29T15:40:46.237Z,9.30
2022-12-29T15:43:39.472Z,9.30
2022-12-29T15:46:12.257Z,9.30
2022-12-29T15:48:42.203Z,9.30
2022-12-29T15:51:20.585Z,9.30
2022-12-29T15:53:50.973Z,9.20
2022-12-29T15:56:19.575Z,9.20
2022-12-29T15:58:49.607Z,9.20
2022-12-29T16:01:24.763Z,9.20
2022-12-29T16:03:54.752Z,9.20
2022-12-29T16:06:33.247Z,9.10
2022-12-29T16:09:04.450Z,9.10
2022-12-29T16:11:36.401Z,9.10
2022-12-29T16:14:09.677Z,9.00
2022-12-29T16:16:40.470Z,9.00
2022-12-29T16:19:16.364Z,9.00
2022-12-29T16:21:44.689Z,8.90
2022-12-29T16:24:16.885Z,8.90
2022-12-29T16:26:49.945Z,8.90
2022-12-29T16:29:18.409Z,8.80
2022-12-29T16:32:00.867Z,8.80
2022-12-29T16:34:33.313Z,8.80
2022-12-29T16:37:02.440Z,8.80
2022-12-29T16:39:36.742Z,8.70
2022-12-29T16:42:36.117Z,8.80
2022-12-29T16:45:41.359Z,8.80
2022-12-29T16:48:20.667Z,8.80
2022-12-29T16:50:50.835Z,8.80
2022-12-29T16:53:22.630Z,8.80
2022-12-29T16:55:52.549Z,8.80
2022-12-29T16:58:23.926Z,8.80
2022-12-29T17:00:54.374Z,8.80
2022-12-29T17:03:22.566Z,8.80
2022-12-29T17:05:57.269Z,8.80
2022-12-29T17:08:25.857Z,8.80
2022-12-29T17:11:12.846Z,8.70
2022-12-29T17:13:41.194Z,8.70
2022-12-29T17:16:12.155Z,8.70
2022-12-29T17:18:40.404Z,8.70
2022-12-29T17:21:09.626Z,8.70
2022-12-29T17:23:37.590Z,8.70
2022-12-29T17:26:05.660Z,8.70
2022-12-29T17:28:34.123Z,8.70
2022-12-29T17:31:04.559Z,8.60
2022-12-29T17:33:37.191Z,8.60
2022-12-29T17:36:05.535Z,8.50
2022-12-29T17:38:37.477Z,8.60
2022-12-29T17:41:05.620Z,8.60
2022-12-29T17:43:37.078Z,8.60
2022-12-29T17:46:08.060Z,8.60
2022-12-29T17:48:36.567Z,8.60
2022-12-29T17:51:04.726Z,8.60
2022-12-29T17:53:34.010Z,8.60
2022-12-29T17:56:01.877Z,8.60
2022-12-29T17:58:31.596Z,8.60
2022-12-29T18:01:00.946Z,8.60
2022-12-29T18:03:31.594Z,8.60
2022-12-29T18:06:00.261Z,8.60
2022-12-29T18:08:29.424Z,8.60
2022-12-29T18:10:58.832Z,8.70
2022-12-29T18:13:38.105Z,8.70
2022-12-29T18:16:12.176Z,8.70
2022-12-29T18:18:40.130Z,8.70
2022-12-29T18:21:08.091Z,8.70
2022-12-29T18:23:36.019Z,8.70
2022-12-29T18:26:08.209Z,8.70
2022-12-29T18:28:36.287Z,8.70
2022-12-29T18:31:04.208Z,8.70
2022-12-29T18:33:32.166Z,8.60
2022-12-29T18:36:02.072Z,8.60
2022-12-29T18:38:30.631Z,8.60
2022-12-29T18:40:59.359Z,8.60
2022-12-29T18:43:28.664Z,8.50
2022-12-29T18:45:56.988Z,8.50
2022-12-29T18:48:24.857Z,8.40
2022-12-29T18:50:53.370Z,8.40
2022-12-29T18:53:23.682Z,8.30
2022-12-29T18:55:52.275Z,8.30
2022-12-29T18:58:20.727Z,8.20
2022-12-29T19:00:50.111Z,8.20
2022-12-29T19:03:19.343Z,8.20
2022-12-29T19:05:48.806Z,8.20
2022-12-29T19:08:16.909Z,8.20
2022-12-29T19:10:45.412Z,8.20
2022-12-29T19:13:18.260Z,8.30
2022-12-29T19:15:47.091Z,8.30
2022-12-29T19:21:08.113Z,8.20
2022-12-29T19:23:36.065Z,8.20
2022-12-29T19:26:03.965Z,8.20
2022-12-29T19:28:32.004Z,8.10
2022-12-29T19:31:01.992Z,8.10
2022-12-29T19:33:31.398Z,8.00
2022-12-29T19:36:01.445Z,8.00
2022-12-29T19:38:29.702Z,8.00
2022-12-29T19:40:57.828Z,7.90
2022-12-29T19:43:25.990Z,7.90
2022-12-29T19:45:53.920Z,7.90
2022-12-29T19:48:22.199Z,7.80
2022-12-29T19:50:51.547Z,7.80
2022-12-29T19:53:19.828Z,7.70
2022-12-29T19:55:48.340Z,7.70
2022-12-29T19:58:16.539Z,7.70
2022-12-29T20:00:44.965Z,7.70
2022-12-29T20:03:13.011Z,7.70
2022-12-29T20:05:41.317Z,7.70
2022-12-29T20:08:10.540Z,7.60
2022-12-29T20:10:38.437Z,7.60
2022-12-29T20:13:06.415Z,7.70
2022-12-29T20:15:34.363Z,7.60
2022-12-29T20:18:17.539Z,7.60
2022-12-29T20:20:45.558Z,7.60
2022-12-29T20:23:14.816Z,7.50
2022-12-29T20:25:46.113Z,7.50
2022-12-29T20:28:16.652Z,7.50
2022-12-29T20:30:44.906Z,7.50
2022-12-29T20:33:12.885Z,7.50
2022-12-29T20:35:40.810Z,7.50
2022-12-29T20:38:08.665Z,7.50
2022-12-29T20:40:45.988Z,7.50
2022-12-29T20:43:16.346Z,7.40
2022-12-29T20:45:44.528Z,7.40
2022-12-29T20:48:12.641Z,7.40
2022-12-29T20:50:42.297Z,7.40
2022-12-29T20:53:11.608Z,7.30
2022-12-29T20:55:48.359Z,7.40
2022-12-29T20:58:24.440Z,7.40
2022-12-29T21:00:53.347Z,7.40
2022-12-29T21:03:21.307Z,7.40
2022-12-29T21:05:49.315Z,7.40
2022-12-29T21:08:17.645Z,7.40
2022-12-29T21:10:48.440Z,7.40
2022-12-29T21:13:17.436Z,7.40
2022-12-29T21:15:47.429Z,7.40
2022-12-29T21:18:15.845Z,7.50
2022-12-29T21:21:14.681Z,7.50
2022-12-29T21:24:06.210Z,7.50
2022-12-29T21:26:44.976Z,7.60
2022-12-29T21:29:13.114Z,7.60
2022-12-29T21:31:45.904Z,7.50
2022-12-29T21:34:14.354Z,7.60
2022-12-29T21:36:53.084Z,7.60
2022-12-29T21:39:27.726Z,7.60
2022-12-29T21:42:01.566Z,7.60
2022-12-29T21:44:46.964Z,7.60
2022-12-29T21:47:14.848Z,7.60
2022-12-29T21:49:42.757Z,7.70
2022-12-29T21:52:10.695Z,7.70
2022-12-29T21:54:56.032Z,7.60
2022-12-29T21:57:42.660Z,7.60
2022-12-29T22:00:29.640Z,7.60
2022-12-29T22:03:22.729Z,7.50
2022-12-29T22:06:09.084Z,7.50
2022-12-29T22:08:54.995Z,7.50
2022-12-29T22:11:40.240Z,7.50
2022-12-29T22:14:09.455Z,7.40
2022-12-29T22:16:37.452Z,7.40
2022-12-29T22:19:07.773Z,7.40
2022-12-29T22:21:35.759Z,7.40
2022-12-29T22:24:03.632Z,7.40
2022-12-29T22:26:31.980Z,7.40
2022-12-29T22:28:59.997Z,7.40
2022-12-29T22:31:32.581Z,7.40
2022-12-29T22:34:02.485Z,7.40
2022-12-29T22:36:31.197Z,7.30
2022-12-29T22:38:59.097Z,7.30
2022-12-29T22:41:27.059Z,7.30
2022-12-29T22:43:55.720Z,7.30
2022-12-29T22:46:24.102Z,7.20
2022-12-29T22:48:53.342Z,7.20
2022-12-29T22:51:21.237Z,7.20
2022-12-29T22:53:50.109Z,7.20
2022-12-29T22:56:18.280Z,7.20
2022-12-29T22:58:47.991Z,7.20
2022-12-29T23:01:17.633Z,7.20
2022-12-29T23:03:45.951Z,7.10
2022-12-29T23:06:17.331Z,7.10
2022-12-29T23:08:47.272Z,7.20
2022-12-29T23:11:15.236Z,7.20
2022-12-29T23:13:45.002Z,7.20
2022-12-29T23:16:13.249Z,7.20
2022-12-29T23:18:41.600Z,7.20
2022-12-29T23:21:10.126Z,7.20
2022-12-29T23:23:54.752Z,7.30
2022-12-29T23:26:25.201Z,7.20
2022-12-29T23:28:59.684Z,7.20
2022-12-29T23:31:28.764Z,7.30
2022-12-29T23:33:57.045Z,7.30
2022-12-29T23:36:24.992Z,7.30
2022-12-29T23:38:54.299Z,7.30
2022-12-29T23:41:22.319Z,7.30
2022-12-29T23:43:50.444Z,7.30
2022-12-29T23:46:20.292Z,7.30
2022-12-29T23:48:48.342Z,7.40
2022-12-29T23:51:16.570Z,7.40
2022-12-29T23:53:45.613Z,7.40
2022-12-29T23:56:17.003Z,7.40
2022-12-29T23:58:45.693Z,7.40
